OSOK1: Oswego hwy 160

                                SHEF ID:       OSOK1     Oswego hwy 160
STATION TYPE:

PRECIP STAGE RIV-FLOW VOLTAGE BAT-LOAD
in ft cfs volt volt
Ccp-Rev Ccp-Rev Ccp-Rev Ccp-Rev Ccp-Rev
(America/Chicago)
03/10 00:00 0.00 14.91 6187 12.79 12.53
03/10 01:00 0.00 14.81 6068 12.77 12.50
03/10 02:00 0.00 14.70 5938 12.76 12.48
03/10 03:00 0.00 14.62 5844 12.73 12.47
03/10 04:00 0.00 14.53 5738 12.72 12.45
03/10 05:00 0.00 14.45 5645 12.71 12.44
03/10 06:00 0.00 14.37 5552 12.70 12.42
03/10 07:00 0.00 14.31 5482 12.68 12.40
03/10 08:00 0.00 14.25 5413 12.69 12.40
03/10 09:00 0.00 14.18 5329 13.34 12.80
03/10 10:00 0.00 14.12 5254 14.12 13.27
03/10 11:00 0.00 14.07 5193 14.08 13.29
03/10 12:00 0.00 14.02 5131 14.03 13.23
03/10 13:00 0.00 13.96 5058 13.56 13.17
03/10 14:00 0.00 13.90 4985 13.50 13.04
03/10 15:00 0.00 13.83 4900 13.47 13.00
03/10 16:00 0.00 13.83 4900 13.38 12.95
03/10 17:00 0.00 13.78 4840 13.44 12.93
03/10 18:00 0.00 13.74 4792 13.44 12.93
03/10 19:00 0.00 13.71 4756 13.16 12.93
03/10 20:00 0.00 13.69 4732 12.93 12.71
03/10 21:00 0.00 13.65 4685 12.85 12.59
03/10 22:00 0.00 13.63 4661 12.82 12.56
03/10 23:00 0.00 13.62 4649 12.80 12.54
Data processed at Wed 11Mar2026 04:50 GMT

NOTICE: If you are parsing this page

Please convert to using our Data API. Starting early 2026 we will be migrating to: https://water.usace.army.mil with modern pages rendered in JavaScript. When this migration completes you will no longer be able to scrape this page! CWMSDataAPI (CDA)

Timeseries IDs (TSIDs)

TSIDs used from left to right in the data table
OSWN.Precip-Inc.Total.1Hour.1Hour.Ccp-Rev
OSWN.Stage.Inst.1Hour.0.Ccp-Rev
OSWN.Flow.Inst.1Hour.0.Ccp-Rev
OSWN.Volt-Battery.Inst.1Hour.0.Ccp-Rev
OSWN.Volt-Battery Load.Inst.1Hour.0.Ccp-Rev

                            

All information presented herein is the property of the government of the United States of America and may be revised or deleted at any time without prior notice. Dissemination of this information without the expressed written consent of the Public Affairs Office, Tulsa District U.S. Army Corps of Engineers is strictly prohibited. These data are gathered electronically and, as presented, have NOT undergone any form of quality control. These data are NOT guaranteed to be valid or correct.